Time;durP1;ratioP1;P1;durP2;ratioP2;P2;SDS_P1;SDS_P2;PMS_P1;PMS_P2;Temp;Humidity;BMP_temperature;BMP_pressure;BME280_temperature;BME280_humidity;BME280_pressure;Samples;Min_cycle;Max_cycle;Signal;HPM_P1;HPM_P2
2021/12/30 00:04:00;;;;;;;3.67;1.15;;;;;;;10.92;100.00;99488.44;8260504;28;20085;-80
2021/12/30 00:08:02;;;;;;;;;;;;;;;11.01;100.00;99508.09;8266124;28;20043;-80
2021/12/30 00:12:05;;;;;;;4.85;1.95;;;;;;;11.02;100.00;99504.25;8255652;28;19925;-80
2021/12/30 00:16:17;;;;;;;4.20;2.90;;;;;;;10.97;100.00;99501.44;8254414;28;20038;-80
2021/12/30 00:20:19;;;;;;;5.05;2.67;;;;;;;10.87;100.00;99511.25;8259166;28;20515;-79
2021/12/30 00:24:21;;;;;;;6.45;2.97;;;;;;;10.78;100.00;99523.84;8272255;28;20554;-80
2021/12/30 00:28:28;;;;;;;4.93;2.58;;;;;;;10.74;100.00;99525.47;8263350;28;20050;-79
2021/12/30 00:32:29;;;;;;;5.60;2.60;;;;;;;10.72;100.00;99530.38;8256424;28;20046;-80
2021/12/30 00:36:31;;;;;;;4.72;2.50;;;;;;;10.69;100.00;99539.16;8254508;28;20043;-79
2021/12/30 00:40:33;;;;;;;6.45;2.00;;;;;;;10.76;100.00;99544.47;8254235;28;20133;-78
2021/12/30 00:44:35;;;;;;;3.70;1.85;;;;;;;10.85;100.00;99549.25;8257249;28;20129;-79
2021/12/30 00:48:37;;;;;;;2.95;1.70;;;;;;;10.84;100.00;99560.56;8269363;28;20073;-80
2021/12/30 00:52:38;;;;;;;3.43;1.50;;;;;;;10.84;100.00;99550.38;8262310;28;20117;-80
2021/12/30 00:56:40;;;;;;;4.38;1.38;;;;;;;10.85;100.00;99563.03;8257864;28;20110;-80
2021/12/30 01:00:44;;;;;;;3.17;1.58;;;;;;;10.81;100.00;99583.13;8245081;28;20046;-79
2021/12/30 01:04:46;;;;;;;4.07;1.50;;;;;;;10.82;100.00;99585.63;8259397;28;20415;-79
2021/12/30 01:08:47;;;;;;;2.78;1.10;;;;;;;10.78;100.00;99589.97;8262695;28;20202;-78
2021/12/30 01:12:50;;;;;;;3.25;1.02;;;;;;;10.78;100.00;99598.25;8249141;28;20563;-77
2021/12/30 01:16:56;;;;;;;5.72;1.10;;;;;;;10.80;100.00;99604.34;8260738;28;20568;-79
2021/12/30 01:20:58;;;;;;;4.53;1.10;;;;;;;10.77;100.00;99613.13;8265217;28;20061;-78
2021/12/30 01:25:00;;;;;;;3.45;1.05;;;;;;;10.70;100.00;99618.81;8270783;28;20089;-79
2021/12/30 01:29:02;;;;;;;2.40;0.80;;;;;;;10.71;100.00;99625.19;8265822;28;20074;-79
2021/12/30 01:33:04;;;;;;;7.63;1.50;;;;;;;10.72;100.00;99624.09;8259201;28;20499;-79
2021/12/30 01:37:06;;;;;;;2.83;0.80;;;;;;;10.69;100.00;99633.69;8259484;28;20290;-79
2021/12/30 01:41:09;;;;;;;4.93;1.02;;;;;;;10.71;100.00;99647.22;8276432;28;20054;-78
2021/12/30 01:45:11;;;;;;;2.80;0.90;;;;;;;10.73;100.00;99648.63;8259705;28;20042;-78
2021/12/30 01:49:14;;;;;;;1.75;1.00;;;;;;;10.73;100.00;99651.38;8245647;28;20042;-79
2021/12/30 01:53:16;;;;;;;3.58;1.30;;;;;;;10.67;100.00;99646.88;8258047;28;20049;-78
2021/12/30 01:57:19;;;;;;;2.53;0.95;;;;;;;10.60;100.00;99648.16;8236675;28;20047;-79
2021/12/30 02:01:22;;;;;;;3.20;1.25;;;;;;;10.62;100.00;99662.50;8271270;28;20571;-79
2021/12/30 02:05:24;;;;;;;6.07;2.15;;;;;;;10.62;100.00;99671.63;8258884;28;20116;-79
2021/12/30 02:09:25;;;;;;;5.93;2.38;;;;;;;10.69;100.00;99679.72;8267888;28;20121;-78
2021/12/30 02:13:27;;;;;;;5.65;2.38;;;;;;;10.75;100.00;99678.69;8255734;28;20038;-80
2021/12/30 02:17:29;;;;;;;4.72;2.08;;;;;;;10.73;100.00;99675.34;8257931;28;20455;-78
2021/12/30 02:21:31;;;;;;;3.50;2.10;;;;;;;10.74;100.00;99685.31;8251129;28;20666;-79
2021/12/30 02:25:32;;;;;;;3.97;1.83;;;;;;;10.69;100.00;99685.22;8264412;28;20550;-78
2021/12/30 02:29:34;;;;;;;7.00;2.38;;;;;;;10.67;100.00;99679.94;8259258;28;20527;-78
2021/12/30 02:33:37;;;;;;;7.97;1.60;;;;;;;10.71;100.00;99689.41;8260414;28;20050;-78
2021/12/30 02:37:38;;;;;;;8.85;2.03;;;;;;;10.73;100.00;99689.97;8265864;28;20046;-80
2021/12/30 02:41:40;;;;;;;11.00;2.00;;;;;;;10.77;100.00;99684.78;8259570;28;20125;-79
2021/12/30 02:45:43;;;;;;;8.05;1.50;;;;;;;10.76;100.00;99682.28;8253221;28;20535;-79
2021/12/30 02:49:44;;;;;;;8.30;1.52;;;;;;;10.71;100.00;99691.31;8258784;28;20117;-78
2021/12/30 02:53:48;;;;;;;7.25;1.83;;;;;;;10.64;100.00;99705.25;8251682;28;20682;-79
2021/12/30 02:57:49;;;;;;;5.97;1.50;;;;;;;10.63;100.00;99705.53;8252840;28;20476;-78
2021/12/30 03:01:51;;;;;;;4.85;1.20;;;;;;;10.67;100.00;99710.25;8260805;28;20054;-79
2021/12/30 03:05:58;;;;;;;7.53;1.50;;;;;;;10.73;100.00;99714.75;8255961;28;20457;-79
2021/12/30 03:10:01;;;;;;;3.50;1.23;;;;;;;10.84;100.00;99726.78;8258900;28;20141;-80
2021/12/30 03:14:03;;;;;;;3.13;1.00;;;;;;;10.88;100.00;99724.34;8257881;28;20093;-78
2021/12/30 03:18:04;;;;;;;7.88;1.30;;;;;;;10.97;100.00;99724.75;8249676;28;20132;-78
2021/12/30 03:22:06;;;;;;;8.20;1.58;;;;;;;11.04;100.00;99726.25;8252607;28;20046;-78
2021/12/30 03:26:09;;;;;;;4.07;1.42;;;;;;;11.11;100.00;99717.78;8256115;28;20503;-78
2021/12/30 03:30:13;;;;;;;6.53;1.08;;;;;;;11.12;100.00;99722.19;8253999;28;20042;-78
2021/12/30 03:34:15;;;;;;;5.90;1.13;;;;;;;11.16;100.00;99720.59;8255995;28;20133;-78
2021/12/30 03:38:17;;;;;;;5.07;1.20;;;;;;;11.20;100.00;99720.91;8268241;28;20049;-78
2021/12/30 03:42:19;;;;;;;6.20;1.27;;;;;;;11.25;100.00;99726.50;8253184;28;20390;-78
2021/12/30 03:46:21;;;;;;;4.95;1.10;;;;;;;11.20;100.00;99726.44;8252490;28;20137;-80
2021/12/30 03:50:27;;;;;;;8.32;1.67;;;;;;;11.17;100.00;99730.53;8262144;28;20050;-80
2021/12/30 03:54:29;;;;;;;5.10;1.30;;;;;;;11.12;100.00;99738.72;8247709;28;20051;-78
2021/12/30 03:58:31;;;;;;;6.90;1.30;;;;;;;11.04;100.00;99734.50;8261814;28;20050;-78
2021/12/30 04:02:32;;;;;;;5.60;1.00;;;;;;;11.03;100.00;99735.56;8255251;28;20130;-78
2021/12/30 04:06:34;;;;;;;5.63;1.75;;;;;;;11.07;100.00;99739.50;8251478;28;20050;-79
2021/12/30 04:10:36;;;;;;;5.97;1.70;;;;;;;11.08;100.00;99741.16;8259397;28;20058;-79
2021/12/30 04:14:38;;;;;;;7.40;1.60;;;;;;;11.08;100.00;99751.38;8254255;28;20137;-78
2021/12/30 04:18:40;;;;;;;4.80;1.85;;;;;;;11.06;100.00;99748.03;8253818;28;20038;-79
2021/12/30 04:22:42;;;;;;;7.25;1.40;;;;;;;11.14;100.00;99742.09;8260966;28;20414;-79
2021/12/30 04:26:44;;;;;;;9.02;2.05;;;;;;;11.14;100.00;99744.84;8258528;28;20054;-79
2021/12/30 04:30:46;;;;;;;6.35;1.58;;;;;;;11.18;100.00;99746.84;8267566;28;20061;-80
2021/12/30 04:34:47;;;;;;;8.35;1.80;;;;;;;11.25;100.00;99743.06;8252441;28;20523;-79
2021/12/30 04:38:49;;;;;;;5.78;1.52;;;;;;;11.29;100.00;99741.44;8268545;28;20077;-79
2021/12/30 04:42:51;;;;;;;8.63;2.20;;;;;;;11.40;100.00;99760.63;8260296;28;20133;-79
2021/12/30 04:46:52;;;;;;;6.63;1.83;;;;;;;11.45;100.00;99759.88;8247895;28;20158;-79
2021/12/30 04:50:54;;;;;;;5.50;1.88;;;;;;;11.52;100.00;99765.19;8262731;28;20137;-79
2021/12/30 04:54:55;;;;;;;7.22;1.73;;;;;;;11.59;100.00;99768.59;8278604;28;20153;-78
2021/12/30 04:58:57;;;;;;;9.30;2.08;;;;;;;11.59;100.00;99771.34;8262593;28;20177;-79
2021/12/30 05:07:07;;;;;;;8.40;2.17;;;;;;;11.70;100.00;99766.78;8261613;28;20415;-79
2021/12/30 05:11:09;;;;;;;6.18;2.33;;;;;;;11.70;100.00;99775.91;8267324;28;20038;-79
2021/12/30 05:15:11;;;;;;;7.90;2.58;;;;;;;11.68;100.00;99772.56;8267339;28;20085;-79
2021/12/30 05:19:13;;;;;;;5.83;2.90;;;;;;;11.68;100.00;99772.56;8267864;28;20046;-79
2021/12/30 05:23:14;;;;;;;6.88;2.67;;;;;;;11.68;100.00;99771.72;8262318;28;20042;-79
2021/12/30 05:27:18;;;;;;;5.85;2.67;;;;;;;11.69;100.00;99774.25;8271017;28;20058;-79
2021/12/30 05:31:19;;;;;;;8.90;3.13;;;;;;;11.73;100.00;99772.63;8269873;28;20431;-80
2021/12/30 05:35:22;;;;;;;6.47;2.58;;;;;;;11.74;100.00;99765.16;8270082;28;20122;-79
2021/12/30 05:39:23;;;;;;;5.13;2.47;;;;;;;11.76;100.00;99760.22;8282165;28;20077;-80
2021/12/30 05:43:26;;;;;;;6.70;3.22;;;;;;;11.78;100.00;99775.44;8257917;28;20455;-79
2021/12/30 05:47:28;;;;;;;8.27;2.10;;;;;;;11.81;100.00;99772.16;8269752;28;20078;-79
2021/12/30 05:51:29;;;;;;;13.40;3.58;;;;;;;11.87;100.00;99773.09;8274239;28;20189;-79
2021/12/30 05:55:31;;;;;;;5.50;1.75;;;;;;;11.91;100.00;99784.44;8262178;28;20081;-79
2021/12/30 05:59:32;;;;;;;4.35;1.60;;;;;;;11.97;100.00;99786.16;8262451;28;20106;-78
2021/12/30 06:03:34;;;;;;;4.45;1.58;;;;;;;12.04;100.00;99781.25;8268201;28;20130;-79
2021/12/30 06:07:36;;;;;;;3.13;1.60;;;;;;;12.09;100.00;99789.59;8278506;28;20110;-79
2021/12/30 06:11:37;;;;;;;5.10;1.45;;;;;;;12.18;100.00;99803.78;8269037;28;20129;-79
2021/12/30 06:15:39;;;;;;;6.78;1.65;;;;;;;12.20;100.00;99809.91;8268016;28;20184;-79
2021/12/30 06:19:42;;;;;;;2.88;1.08;;;;;;;12.25;100.00;99812.69;8266177;28;20104;-79
2021/12/30 06:23:44;;;;;;;2.90;1.38;;;;;;;12.34;100.00;99822.16;8257351;28;20053;-79
2021/12/30 06:27:45;;;;;;;5.53;1.50;;;;;;;12.34;100.00;99815.81;8269644;28;20538;-79
2021/12/30 06:31:47;;;;;;;4.07;1.50;;;;;;;12.38;100.00;99811.47;8267033;28;20034;-78
2021/12/30 06:35:48;;;;;;;5.38;1.42;;;;;;;12.42;100.00;99821.69;8271680;28;20514;-79
2021/12/30 06:39:50;;;;;;;2.80;1.50;;;;;;;12.39;100.00;99822.22;8269529;28;20157;-79
2021/12/30 06:43:52;;;;;;;1.85;0.98;;;;;;;12.48;100.00;99825.34;8266464;28;20062;-79
2021/12/30 06:47:53;;;;;;;1.85;1.10;;;;;;;12.46;100.00;99833.06;8263258;28;20054;-79
2021/12/30 06:51:55;;;;;;;4.40;1.13;;;;;;;12.49;100.00;99841.69;8266218;28;20060;-79
2021/12/30 06:55:56;;;;;;;2.97;1.00;;;;;;;12.56;100.00;99858.06;8260337;28;20479;-79
2021/12/30 06:59:58;;;;;;;2.42;1.17;;;;;;;12.61;100.00;99851.72;8264084;28;20137;-78
2021/12/30 07:03:59;;;;;;;1.80;0.93;;;;;;;12.60;100.00;99861.94;8261960;28;20081;-78
2021/12/30 07:08:01;;;;;;;2.65;1.30;;;;;;;12.64;100.00;99868.66;8275458;28;20042;-79
2021/12/30 07:12:03;;;;;;;1.67;0.70;;;;;;;12.68;100.00;99869.78;8261539;28;20066;-79
2021/12/30 07:16:05;;;;;;;1.97;0.87;;;;;;;12.75;100.00;99870.38;8254502;28;20125;-79
2021/12/30 07:20:09;;;;;;;0.88;0.57;;;;;;;12.74;100.00;99863.19;8262923;28;20121;-80
2021/12/30 07:24:11;;;;;;;5.07;1.00;;;;;;;12.77;100.00;99881.19;8268850;28;20037;-79
2021/12/30 07:28:12;;;;;;;2.05;0.68;;;;;;;12.72;100.00;99870.06;8249889;28;20149;-78
2021/12/30 07:32:14;;;;;;;2.17;0.98;;;;;;;12.73;100.00;99878.13;8264193;28;20058;-80
2021/12/30 07:36:15;;;;;;;4.50;1.02;;;;;;;12.73;100.00;99883.66;8262265;28;20129;-80
2021/12/30 07:40:18;;;;;;;3.92;0.90;;;;;;;12.71;100.00;99874.78;8258270;28;20483;-80
2021/12/30 07:44:20;;;;;;;;;;;;;;;12.64;100.00;99879.69;8259935;28;20088;-79
2021/12/30 07:48:41;;;;;;;1.92;0.63;;;;;;;12.66;100.00;99882.19;8254555;28;19983;-79
2021/12/30 07:52:43;;;;;;;1.60;0.70;;;;;;;12.60;100.00;99895.13;8261005;28;20042;-80
2021/12/30 07:56:44;;;;;;;1.00;0.88;;;;;;;12.58;100.00;99907.53;8252667;28;20206;-79
2021/12/30 08:00:46;;;;;;;1.55;0.80;;;;;;;12.56;100.00;99918.03;8256444;28;20125;-79
2021/12/30 08:04:47;;;;;;;1.50;0.70;;;;;;;12.59;100.00;99915.56;8255259;28;20106;-79
2021/12/30 08:08:49;;;;;;;2.03;0.95;;;;;;;12.66;100.00;99921.72;8272734;28;20133;-80
2021/12/30 08:12:52;;;;;;;1.63;1.00;;;;;;;12.78;100.00;99918.78;8271031;28;20074;-80
2021/12/30 08:16:55;;;;;;;2.65;0.82;;;;;;;12.82;100.00;99908.91;8259230;28;20065;-80
2021/12/30 08:20:58;;;;;;;2.80;0.80;;;;;;;12.88;100.00;99912.53;8256040;28;20105;-79
2021/12/30 08:25:00;;;;;;;2.05;1.10;;;;;;;12.98;100.00;99912.63;8264074;28;20077;-80
2021/12/30 08:29:02;;;;;;;2.15;0.73;;;;;;;13.00;100.00;99915.97;8261251;28;20073;-79
2021/12/30 08:33:04;;;;;;;2.23;1.00;;;;;;;12.99;100.00;99903.22;8269356;28;20050;-80
2021/12/30 08:37:06;;;;;;;1.80;0.80;;;;;;;13.01;100.00;99912.09;8260516;28;20081;-80
2021/12/30 08:41:08;;;;;;;3.03;0.90;;;;;;;12.99;100.00;99926.19;8252758;28;20066;-79
2021/12/30 08:45:10;;;;;;;1.52;1.00;;;;;;;13.05;100.00;99924.28;8274394;28;20151;-79
2021/12/30 08:49:12;;;;;;;2.38;0.95;;;;;;;13.08;100.00;99921.00;8266170;28;20073;-79
2021/12/30 08:53:15;;;;;;;1.02;0.90;;;;;;;13.18;100.00;99925.81;8273982;28;20074;-79
2021/12/30 08:57:18;;;;;;;1.77;0.73;;;;;;;13.29;100.00;99935.03;8273264;28;20128;-80
2021/12/30 09:01:19;;;;;;;;;;;;;;;13.36;100.00;99942.03;8272979;28;20483;-79
2021/12/30 09:05:22;;;;;;;1.63;0.90;;;;;;;13.47;100.00;99947.63;8286214;28;20009;-79
2021/12/30 09:09:24;;;;;;;1.77;0.93;;;;;;;13.56;100.00;99963.47;8266263;28;20105;-80
2021/12/30 09:13:26;;;;;;;4.35;0.80;;;;;;;13.71;100.00;99968.28;8277320;28;20046;-79
2021/12/30 09:17:28;;;;;;;2.22;1.15;;;;;;;13.77;100.00;99977.47;8263291;28;20437;-79
2021/12/30 09:21:29;;;;;;;2.03;1.20;;;;;;;13.82;100.00;99988.59;8263102;28;20081;-79
2021/12/30 09:25:32;;;;;;;1.80;1.05;;;;;;;13.90;100.00;99986.16;8270326;28;20046;-79
2021/12/30 09:29:33;;;;;;;3.53;1.00;;;;;;;13.86;100.00;100006.31;8250976;28;20057;-78
2021/12/30 09:33:35;;;;;;;1.77;1.05;;;;;;;13.96;100.00;100006.41;8274554;28;20117;-79
2021/12/30 09:37:37;;;;;;;1.08;0.70;;;;;;;14.00;100.00;100015.84;8272006;28;20042;-79
2021/12/30 09:41:41;;;;;;;1.73;1.00;;;;;;;14.01;100.00;100020.31;8275167;28;20074;-80
2021/12/30 09:45:43;;;;;;;2.25;1.75;;;;;;;14.00;100.00;100021.38;8267842;28;20073;-79
2021/12/30 09:49:45;;;;;;;2.15;1.05;;;;;;;14.08;100.00;100026.44;8263831;28;20057;-78
2021/12/30 09:53:50;;;;;;;1.83;1.17;;;;;;;14.17;100.00;100023.16;8267810;28;20141;-79
2021/12/30 09:57:53;;;;;;;1.75;1.00;;;;;;;14.17;100.00;100021.22;8276696;28;20425;-79
2021/12/30 10:01:55;;;;;;;1.48;1.05;;;;;;;14.35;100.00;100020.75;8282783;28;20117;-80
2021/12/30 10:06:14;;;;;;;1.23;0.88;;;;;;;14.33;100.00;100020.19;8268143;28;20125;-79
2021/12/30 10:10:32;;;;;;;2.00;0.93;;;;;;;14.48;100.00;100018.59;8282746;28;20050;-79
2021/12/30 10:14:37;;;;;;;1.70;1.00;;;;;;;14.56;100.00;100015.34;8267207;28;20084;-79
2021/12/30 10:19:10;;;;;;;4.15;1.33;;;;;;;14.67;100.00;100017.03;8269740;28;20088;-79
2021/12/30 10:23:17;;;;;;;1.53;0.90;;;;;;;14.72;100.00;100019.84;8266789;28;20060;-79
2021/12/30 10:27:28;;;;;;;3.30;0.98;;;;;;;14.64;100.00;100022.31;8275600;28;20285;-79
2021/12/30 10:31:31;;;;;;;2.75;1.10;;;;;;;14.66;100.00;100031.16;8276404;28;20745;-79
2021/12/30 10:35:35;;;;;;;3.10;1.30;;;;;;;14.69;100.00;100031.44;8277429;28;20062;-79
2021/12/30 10:39:41;;;;;;;3.38;1.30;;;;;;;14.70;100.00;100026.78;8282578;28;20125;-79
2021/12/30 10:47:54;;;;;;;2.17;1.08;;;;;;;14.66;100.00;100014.53;8277713;28;20507;-79
2021/12/30 10:51:57;;;;;;;2.10;1.20;;;;;;;14.61;100.00;100009.81;8246771;28;20125;-78
2021/12/30 10:56:22;;;;;;;1.63;0.95;;;;;;;14.64;100.00;100005.66;8264614;28;20133;-77
2021/12/30 11:00:29;;;;;;;1.02;0.90;;;;;;;14.63;100.00;100017.84;8262008;28;20137;-79
2021/12/30 11:04:40;;;;;;;2.25;1.20;;;;;;;14.65;100.00;100021.19;8263829;28;20096;-78
2021/12/30 11:08:43;;;;;;;2.33;1.05;;;;;;;14.66;100.00;100023.69;8272722;28;20042;-77
2021/12/30 11:12:46;;;;;;;3.28;1.30;;;;;;;14.64;100.00;100025.91;8265981;28;20053;-77
2021/12/30 11:17:00;;;;;;;2.83;1.10;;;;;;;14.63;100.00;100040.03;8266239;28;20042;-78
2021/12/30 11:21:02;;;;;;;2.03;1.10;;;;;;;14.74;100.00;100033.44;8266092;28;20078;-77
2021/12/30 11:25:07;;;;;;;2.67;1.00;;;;;;;14.74;100.00;100034.25;8263438;28;20070;-77
2021/12/30 11:29:09;;;;;;;1.90;1.00;;;;;;;14.78;100.00;100015.97;8264903;28;20050;-77
2021/12/30 11:33:10;;;;;;;1.25;0.93;;;;;;;14.83;100.00;100026.25;8281871;28;20042;-78
2021/12/30 11:37:14;;;;;;;2.25;1.08;;;;;;;14.90;100.00;100021.28;8266162;28;20132;-77
2021/12/30 11:41:18;;;;;;;1.40;0.90;;;;;;;15.13;100.00;100019.09;8263749;28;20522;-77
2021/12/30 11:45:23;;;;;;;2.08;1.00;;;;;;;15.28;100.00;100010.78;8271918;28;20070;-78
2021/12/30 11:49:51;;;;;;;2.47;1.10;;;;;;;15.28;100.00;100010.78;8263010;28;20110;-78
2021/12/30 11:53:53;;;;;;;1.70;1.08;;;;;;;15.36;100.00;100010.25;8264222;28;20113;-77
2021/12/30 11:57:54;;;;;;;1.75;1.00;;;;;;;15.42;100.00;100020.25;8260292;28;20068;-77
2021/12/30 12:01:56;;;;;;;1.88;1.20;;;;;;;15.39;100.00;100006.91;8264306;28;20145;-78
2021/12/30 12:05:58;;;;;;;3.33;1.25;;;;;;;15.42;100.00;100009.13;8255771;28;20093;-77
2021/12/30 12:10:15;;;;;;;1.77;1.00;;;;;;;15.30;100.00;100010.53;8259936;28;20054;-78
2021/12/30 12:14:21;;;;;;;1.58;0.98;;;;;;;15.22;100.00;100011.91;8274989;28;20145;-79
2021/12/30 12:18:23;;;;;;;1.65;1.17;;;;;;;15.14;100.00;100023.53;8275339;28;20053;-78
2021/12/30 12:22:29;;;;;;;4.70;1.45;;;;;;;15.08;100.00;100027.41;8272463;28;20050;-78
2021/12/30 12:26:38;;;;;;;1.52;1.10;;;;;;;15.09;100.00;100007.72;8269753;28;20042;-78
2021/12/30 12:30:50;;;;;;;1.90;0.90;;;;;;;15.07;100.00;100020.19;8277929;28;20121;-78
2021/12/30 12:34:53;;;;;;;1.77;1.05;;;;;;;15.22;100.00;100017.44;8266198;28;20066;-77
2021/12/30 12:38:55;;;;;;;2.60;0.98;;;;;;;15.22;100.00;100009.13;8276525;28;20076;-77
2021/12/30 12:43:01;;;;;;;3.30;1.20;;;;;;;15.23;100.00;100016.34;8269235;28;20117;-77
2021/12/30 12:47:15;;;;;;;1.65;1.00;;;;;;;15.23;100.00;100019.13;8261101;28;20039;-78
2021/12/30 12:51:24;;;;;;;1.98;1.08;;;;;;;15.17;100.00;100009.97;8262863;28;20126;-77
2021/12/30 12:55:26;;;;;;;1.83;1.20;;;;;;;15.25;100.00;100003.00;8262140;28;20073;-78
2021/12/30 12:59:27;;;;;;;1.88;1.15;;;;;;;15.17;100.00;100000.78;8265015;28;20142;-77
2021/12/30 13:03:29;;;;;;;2.50;1.00;;;;;;;15.07;100.00;99995.22;8270788;28;20128;-78
2021/12/30 13:07:33;;;;;;;2.03;1.02;;;;;;;14.96;100.00;100011.88;8254764;28;20137;-77
2021/12/30 13:11:40;;;;;;;1.95;0.70;;;;;;;15.03;100.00;100017.16;8262234;28;20042;-77
2021/12/30 13:15:42;;;;;;;2.28;1.20;;;;;;;15.13;100.00;100021.88;8270421;28;20124;-77
2021/12/30 13:19:47;;;;;;;2.58;1.10;;;;;;;15.25;100.00;100025.22;8276245;28;20446;-77
2021/12/30 13:23:48;;;;;;;1.70;1.00;;;;;;;15.39;100.00;100015.25;8268752;28;20056;-78
2021/12/30 13:27:51;;;;;;;1.92;1.00;;;;;;;15.33;100.00;100016.34;8272923;28;20130;-77
2021/12/30 13:32:14;;;;;;;1.80;1.00;;;;;;;15.10;100.00;100030.75;8285615;28;20043;-77
2021/12/30 13:36:15;;;;;;;1.45;1.00;;;;;;;15.12;100.00;100034.94;8270731;28;20057;-78
2021/12/30 13:40:22;;;;;;;3.05;1.10;;;;;;;15.03;100.00;100042.94;8276316;28;20053;-79
2021/12/30 13:44:24;;;;;;;1.50;1.08;;;;;;;14.99;100.00;100039.06;8270291;28;20081;-78
2021/12/30 13:48:29;;;;;;;2.00;1.00;;;;;;;14.90;100.00;100035.16;8253565;28;20054;-78
2021/12/30 13:52:36;;;;;;;2.83;1.50;;;;;;;14.90;100.00;100037.94;8268521;28;20096;-78
2021/12/30 13:56:42;;;;;;;2.20;1.58;;;;;;;14.86;100.00;100017.38;8277958;28;20105;-78
2021/12/30 14:00:49;;;;;;;2.83;1.45;;;;;;;14.94;100.00;100016.84;8268556;28;20038;-77
2021/12/30 14:04:51;;;;;;;2.22;1.27;;;;;;;14.86;100.00;99999.91;8277401;28;20861;-78
2021/12/30 14:08:59;;;;;;;4.45;1.33;;;;;;;14.72;100.00;100014.31;8262828;28;20046;-77
2021/12/30 14:13:06;;;;;;;1.70;0.93;;;;;;;14.78;100.00;100021.53;8267299;28;20054;-77
2021/12/30 14:17:11;;;;;;;3.85;1.20;;;;;;;14.82;100.00;100024.59;8272395;28;20133;-79
2021/12/30 14:21:12;;;;;;;1.75;1.08;;;;;;;14.71;100.00;100039.53;8279232;28;20086;-79
2021/12/30 14:25:34;;;;;;;2.05;1.15;;;;;;;14.59;100.00;100054.44;8279274;28;20102;-79
2021/12/30 14:29:36;;;;;;;1.75;1.13;;;;;;;14.47;100.00;100059.34;8287020;28;20115;-78
2021/12/30 14:33:40;;;;;;;2.47;1.30;;;;;;;14.51;100.00;100065.19;8280318;28;20069;-78
2021/12/30 14:37:44;;;;;;;2.30;1.08;;;;;;;14.42;100.00;100064.84;8270973;28;20046;-79
2021/12/30 14:41:46;;;;;;;2.20;1.10;;;;;;;14.33;100.00;100069.25;8278835;28;20141;-78
2021/12/30 14:45:48;;;;;;;4.37;1.57;;;;;;;14.24;100.00;100062.53;8270898;28;20074;-78
2021/12/30 14:50:09;;;;;;;4.53;1.40;;;;;;;14.20;100.00;100072.50;8282247;28;20116;-79
2021/12/30 14:54:12;;;;;;;2.00;1.20;;;;;;;14.12;100.00;100074.66;8268322;28;20046;-79
2021/12/30 14:58:15;;;;;;;2.58;1.63;;;;;;;14.07;100.00;100065.50;8290547;28;20053;-78
2021/12/30 15:02:19;;;;;;;2.97;1.70;;;;;;;14.02;100.00;100079.31;8277384;28;20077;-78
2021/12/30 15:06:22;;;;;;;3.45;1.90;;;;;;;13.96;100.00;100083.16;8270131;28;20046;-77
2021/12/30 15:10:25;;;;;;;4.32;2.20;;;;;;;13.79;100.00;100078.56;8274524;28;20073;-78
2021/12/30 15:14:27;;;;;;;4.13;2.22;;;;;;;13.83;100.00;100087.19;8273198;28;20045;-78
2021/12/30 15:18:29;;;;;;;6.38;2.67;;;;;;;13.75;100.00;100091.28;8284130;28;20118;-78
2021/12/30 15:22:30;;;;;;;4.47;2.50;;;;;;;13.74;100.00;100102.63;8272630;28;20168;-79
2021/12/30 15:26:32;;;;;;;5.57;2.40;;;;;;;13.64;100.00;100114.44;8271535;28;20074;-79
2021/12/30 15:30:34;;;;;;;3.60;2.23;;;;;;;13.61;100.00;100115.81;8274459;28;20121;-78
2021/12/30 15:34:36;;;;;;;4.38;2.28;;;;;;;13.54;100.00;100119.91;8274763;28;20152;-78
2021/12/30 15:38:37;;;;;;;4.60;2.72;;;;;;;13.52;100.00;100127.63;8272449;28;20122;-78
2021/12/30 15:42:41;;;;;;;5.30;2.35;;;;;;;13.49;100.00;100128.97;8280734;28;20772;-78
2021/12/30 15:46:43;;;;;;;5.38;2.78;;;;;;;13.49;100.00;100133.69;8278625;28;20073;-78
2021/12/30 15:50:45;;;;;;;5.93;2.80;;;;;;;13.49;100.00;100128.97;8279729;28;20045;-79
2021/12/30 15:54:46;;;;;;;4.47;2.50;;;;;;;13.45;100.00;100134.22;8271948;28;20034;-78
2021/12/30 15:58:48;;;;;;;3.47;2.08;;;;;;;13.46;100.00;100146.13;8274672;28;20133;-79
2021/12/30 16:02:51;;;;;;;5.00;2.67;;;;;;;13.52;100.00;100142.28;8269410;28;20152;-78
2021/12/30 16:06:52;;;;;;;2.78;1.48;;;;;;;13.55;100.00;100147.31;8275043;28;20049;-78
2021/12/30 16:10:54;;;;;;;3.08;1.80;;;;;;;13.60;100.00;100158.44;8276403;28;20575;-78
2021/12/30 16:14:59;;;;;;;5.78;2.08;;;;;;;13.63;100.00;100155.16;8277395;28;20128;-78
2021/12/30 16:19:03;;;;;;;7.38;1.48;;;;;;;13.65;100.00;100166.81;8271398;28;20054;-78
2021/12/30 16:23:05;;;;;;;5.88;1.75;;;;;;;13.75;100.00;100170.78;8268783;28;20122;-78
2021/12/30 16:27:07;;;;;;;5.03;1.70;;;;;;;13.74;100.00;100181.03;8262115;28;20117;-77
2021/12/30 16:31:09;;;;;;;6.97;1.67;;;;;;;13.72;100.00;100179.63;8276464;28;20146;-78
2021/12/30 16:35:11;;;;;;;2.43;1.50;;;;;;;13.64;100.00;100178.97;8282971;28;20034;-78
2021/12/30 16:39:13;;;;;;;4.70;2.05;;;;;;;13.58;100.00;100180.00;8264601;28;20042;-78
2021/12/30 16:43:15;;;;;;;4.18;1.60;;;;;;;13.54;100.00;100180.81;8274309;28;20125;-78
2021/12/30 16:47:19;;;;;;;3.63;1.52;;;;;;;13.56;100.00;100184.97;8271233;28;20129;-78
2021/12/30 16:51:21;;;;;;;7.00;2.15;;;;;;;13.58;100.00;100188.31;8275661;28;20125;-77
2021/12/30 16:55:23;;;;;;;6.15;1.42;;;;;;;13.49;100.00;100184.34;8271251;28;20069;-78
2021/12/30 16:59:24;;;;;;;4.30;1.80;;;;;;;13.51;100.00;100182.16;8272149;28;20161;-77
2021/12/30 17:03:28;;;;;;;3.05;1.50;;;;;;;13.51;100.00;100192.41;8280357;28;20625;-78
2021/12/30 17:07:30;;;;;;;3.17;1.38;;;;;;;13.45;100.00;100199.81;8277680;28;20050;-78
2021/12/30 17:11:32;;;;;;;3.13;1.20;;;;;;;13.47;100.00;100197.59;8276544;28;20129;-78
2021/12/30 17:15:34;;;;;;;4.27;1.57;;;;;;;13.47;100.00;100205.91;8275994;28;20047;-78
2021/12/30 17:19:36;;;;;;;3.40;1.35;;;;;;;13.41;100.00;100205.03;8266554;28;20073;-78
2021/12/30 17:23:38;;;;;;;5.85;1.60;;;;;;;13.37;100.00;100209.41;8258262;28;20114;-78
2021/12/30 17:27:40;;;;;;;3.50;1.70;;;;;;;13.39;100.00;100217.47;8270228;28;20042;-77
2021/12/30 17:31:42;;;;;;;3.65;1.70;;;;;;;13.40;100.00;100219.97;8272575;28;20049;-77
2021/12/30 17:35:43;;;;;;;3.10;1.83;;;;;;;13.36;100.00;100231.81;8274449;28;20113;-78
2021/12/30 17:39:45;;;;;;;5.15;1.75;;;;;;;13.29;100.00;100218.16;8279310;28;20122;-77
2021/12/30 17:43:47;;;;;;;3.97;1.63;;;;;;;13.31;100.00;100235.34;8271923;28;20141;-78
2021/12/30 17:47:49;;;;;;;3.20;1.70;;;;;;;13.28;100.00;100230.31;8273325;28;20118;-78
2021/12/30 17:51:50;;;;;;;1.38;1.08;;;;;;;13.31;100.00;100240.88;8268761;28;20121;-79
2021/12/30 17:55:52;;;;;;;6.35;2.17;;;;;;;13.29;100.00;100245.84;8263992;28;20054;-78
2021/12/30 17:59:54;;;;;;;3.15;1.50;;;;;;;13.28;100.00;100237.81;8278347;28;20117;-78
2021/12/30 18:03:56;;;;;;;3.70;1.77;;;;;;;13.26;100.00;100239.97;8273782;28;20867;-79
2021/12/30 18:07:57;;;;;;;4.88;1.70;;;;;;;13.20;100.00;100248.16;8275445;28;20538;-79
2021/12/30 18:11:59;;;;;;;5.18;2.00;;;;;;;13.21;100.00;100258.16;8273494;28;20081;-79
2021/12/30 18:16:03;;;;;;;4.53;1.73;;;;;;;13.18;100.00;100255.09;8273730;28;20070;-78
2021/12/30 18:20:06;;;;;;;7.03;2.10;;;;;;;13.21;100.00;100244.34;8265779;28;20065;-80
2021/12/30 18:24:08;;;;;;;4.47;2.25;;;;;;;13.18;100.00;100242.09;8261869;28;20050;-79
2021/12/30 18:28:10;;;;;;;7.78;2.53;;;;;;;13.20;100.00;100252.88;8289195;28;21321;-80
2021/12/30 18:32:13;;;;;;;3.13;1.77;;;;;;;13.19;100.00;100253.97;8265064;28;20053;-80
2021/12/30 18:36:15;;;;;;;3.13;1.60;;;;;;;13.11;100.00;100258.00;8278658;28;20060;-78
2021/12/30 18:40:18;;;;;;;3.22;1.42;;;;;;;13.17;100.00;100270.81;8271891;28;20527;-79
2021/12/30 18:44:20;;;;;;;3.65;1.52;;;;;;;13.16;100.00;100262.78;8269948;28;20034;-79
2021/12/30 18:48:23;;;;;;;4.77;1.80;;;;;;;13.14;100.00;100260.28;8273502;28;20434;-79
2021/12/30 18:52:25;;;;;;;4.15;1.80;;;;;;;13.15;100.00;100267.50;8287658;28;20478;-79
2021/12/30 18:56:27;;;;;;;7.93;2.17;;;;;;;13.23;100.00;100260.66;8275725;28;20045;-78